Main page
METAR-TAF:

METAR-TAF

Airports :

Irkutsk, Russia

International Airport Irkutsk

latitude: 52-16N, longitude: 104-19E, elevation: 513 m

Current weather observation

The report was made 34 minutes ago, at 16:00 UTC
Wind 4 kt from the East/Northeast
Temperature -23°C
Humidity 84%
Pressure 1021 hPa
Visibility 10 km or more
Broken clouds at a height of 4000 ft

METAR: UIII 241600Z 07002MPS 9999 BKN040 M23/M25 Q1021 R12/490245 NOSIG RMK QFE723/0964

Time: 00:34 (16:34 UTC)

Forecast

The report was made 2 hours and 34 minutes ago, at 14:00 UTC
Forecast valid from 24 at 15 UTC to 25 at 15 UTC
Wind 6 kt from the West/Northwest
Visibility: 3100 m
Broken clouds at a height of 1100 ft, Cumulonimbus.
light snow showers
Temporary
from 24 at 15 UTC to 25 at 06 UTC
Visibility: 0900 m
at a height of 300 ft
heavy snow showers

TAF: UIII 241400Z 2415/2515 30003MPS 3100 -SHSN BKN011CB TEMPO 2415/2506 0900 +SHSN VV003

Weather observations and forecasts of more than 4000 airports (METAR and TAF reports).

The available stations are represented by yellow and red dots on the map.

Hover mouse over dot to see the name of the station.

Then click to see weather observations and forecasts.

To change the map : click on the green buttons with a black cross to zoom in, on the green button with a dash to zoom out, or on the green arrows for adjacent maps.


METAR-TAF: